sensor_id;sensor_type;location;lat;lon;timestamp;P1;durP1;ratioP1;P2;durP2;ratioP2
1344;SDS011;15375;48.540;9.268;2023-02-13T00:01:01;17.90;;;13.20;;
1344;SDS011;15375;48.540;9.268;2023-02-13T00:03:26;21.27;;;14.30;;
1344;SDS011;15375;48.540;9.268;2023-02-13T00:05:51;17.30;;;13.53;;
1344;SDS011;15375;48.540;9.268;2023-02-13T00:08:17;19.03;;;13.20;;
1344;SDS011;15375;48.540;9.268;2023-02-13T00:10:42;20.10;;;12.20;;
1344;SDS011;15375;48.540;9.268;2023-02-13T00:13:07;20.00;;;14.10;;
1344;SDS011;15375;48.540;9.268;2023-02-13T00:15:33;17.57;;;13.10;;
1344;SDS011;15375;48.540;9.268;2023-02-13T00:17:58;16.93;;;12.67;;
1344;SDS011;15375;48.540;9.268;2023-02-13T00:20:24;20.60;;;13.80;;
1344;SDS011;15375;48.540;9.268;2023-02-13T00:22:49;16.23;;;12.20;;
1344;SDS011;15375;48.540;9.268;2023-02-13T00:25:14;20.10;;;14.33;;
1344;SDS011;15375;48.540;9.268;2023-02-13T00:27:40;22.03;;;13.60;;
1344;SDS011;15375;48.540;9.268;2023-02-13T00:30:05;19.50;;;15.13;;
1344;SDS011;15375;48.540;9.268;2023-02-13T00:32:31;21.27;;;13.20;;
1344;SDS011;15375;48.540;9.268;2023-02-13T00:34:57;22.07;;;14.67;;
1344;SDS011;15375;48.540;9.268;2023-02-13T00:37:23;25.23;;;16.37;;
1344;SDS011;15375;48.540;9.268;2023-02-13T00:39:49;23.47;;;15.07;;
1344;SDS011;15375;48.540;9.268;2023-02-13T00:42:14;23.20;;;17.00;;
1344;SDS011;15375;48.540;9.268;2023-02-13T00:44:39;27.73;;;19.50;;
1344;SDS011;15375;48.540;9.268;2023-02-13T00:47:05;28.67;;;17.00;;
1344;SDS011;15375;48.540;9.268;2023-02-13T00:49:30;24.63;;;18.67;;
1344;SDS011;15375;48.540;9.268;2023-02-13T00:51:55;27.33;;;19.07;;
1344;SDS011;15375;48.540;9.268;2023-02-13T00:54:21;27.37;;;19.40;;
1344;SDS011;15375;48.540;9.268;2023-02-13T00:56:46;25.00;;;19.73;;
1344;SDS011;15375;48.540;9.268;2023-02-13T00:59:11;24.30;;;17.50;;
1344;SDS011;15375;48.540;9.268;2023-02-13T01:01:37;26.90;;;17.63;;
1344;SDS011;15375;48.540;9.268;2023-02-13T01:04:02;27.33;;;18.07;;
1344;SDS011;15375;48.540;9.268;2023-02-13T01:06:27;24.60;;;17.93;;
1344;SDS011;15375;48.540;9.268;2023-02-13T01:08:53;23.17;;;17.30;;
1344;SDS011;15375;48.540;9.268;2023-02-13T01:11:18;29.23;;;18.90;;
1344;SDS011;15375;48.540;9.268;2023-02-13T01:13:44;27.80;;;17.80;;
1344;SDS011;15375;48.540;9.268;2023-02-13T01:16:09;26.73;;;18.60;;
1344;SDS011;15375;48.540;9.268;2023-02-13T01:18:35;24.27;;;16.47;;
1344;SDS011;15375;48.540;9.268;2023-02-13T01:21:02;28.10;;;18.37;;
1344;SDS011;15375;48.540;9.268;2023-02-13T01:23:30;23.53;;;16.47;;
1344;SDS011;15375;48.540;9.268;2023-02-13T01:25:57;26.57;;;18.90;;
1344;SDS011;15375;48.540;9.268;2023-02-13T01:28:22;25.17;;;18.00;;
1344;SDS011;15375;48.540;9.268;2023-02-13T01:30:51;25.20;;;15.57;;
1344;SDS011;15375;48.540;9.268;2023-02-13T01:33:17;30.27;;;18.80;;
1344;SDS011;15375;48.540;9.268;2023-02-13T01:35:43;27.67;;;18.33;;
1344;SDS011;15375;48.540;9.268;2023-02-13T01:38:08;28.57;;;20.40;;
1344;SDS011;15375;48.540;9.268;2023-02-13T01:40:33;31.30;;;21.37;;
1344;SDS011;15375;48.540;9.268;2023-02-13T01:42:59;25.87;;;17.33;;
1344;SDS011;15375;48.540;9.268;2023-02-13T01:45:26;20.97;;;15.60;;
1344;SDS011;15375;48.540;9.268;2023-02-13T01:47:54;24.47;;;18.50;;
1344;SDS011;15375;48.540;9.268;2023-02-13T01:50:25;26.53;;;17.13;;
1344;SDS011;15375;48.540;9.268;2023-02-13T01:52:54;30.70;;;18.50;;
1344;SDS011;15375;48.540;9.268;2023-02-13T01:55:24;20.10;;;13.80;;
1344;SDS011;15375;48.540;9.268;2023-02-13T01:57:58;23.77;;;17.67;;
1344;SDS011;15375;48.540;9.268;2023-02-13T02:00:28;25.50;;;17.13;;
1344;SDS011;15375;48.540;9.268;2023-02-13T02:02:57;27.70;;;18.00;;
1344;SDS011;15375;48.540;9.268;2023-02-13T02:05:28;28.83;;;17.53;;
1344;SDS011;15375;48.540;9.268;2023-02-13T02:07:58;24.40;;;18.10;;
1344;SDS011;15375;48.540;9.268;2023-02-13T02:10:26;28.50;;;18.30;;
1344;SDS011;15375;48.540;9.268;2023-02-13T02:15:49;28.83;;;16.80;;
1344;SDS011;15375;48.540;9.268;2023-02-13T02:18:18;25.83;;;17.40;;
1344;SDS011;15375;48.540;9.268;2023-02-13T02:26:32;29.77;;;17.77;;
1344;SDS011;15375;48.540;9.268;2023-02-13T02:40:25;22.00;;;16.43;;
1344;SDS011;15375;48.540;9.268;2023-02-13T02:56:31;27.80;;;15.47;;
1344;SDS011;15375;48.540;9.268;2023-02-13T02:59:03;25.50;;;14.47;;
1344;SDS011;15375;48.540;9.268;2023-02-13T03:01:51;21.83;;;15.70;;
1344;SDS011;15375;48.540;9.268;2023-02-13T03:04:39;21.00;;;14.83;;
1344;SDS011;15375;48.540;9.268;2023-02-13T03:07:26;20.00;;;14.97;;
1344;SDS011;15375;48.540;9.268;2023-02-13T03:09:52;25.10;;;16.30;;
1344;SDS011;15375;48.540;9.268;2023-02-13T03:13:27;20.37;;;16.37;;
1344;SDS011;15375;48.540;9.268;2023-02-13T03:15:45;19.60;;;13.30;;
1344;SDS011;15375;48.540;9.268;2023-02-13T03:18:33;24.53;;;15.10;;
1344;SDS011;15375;48.540;9.268;2023-02-13T03:21:27;21.97;;;16.00;;
1344;SDS011;15375;48.540;9.268;2023-02-13T03:24:35;23.30;;;15.30;;
1344;SDS011;15375;48.540;9.268;2023-02-13T03:27:05;22.50;;;14.43;;
1344;SDS011;15375;48.540;9.268;2023-02-13T03:29:48;30.73;;;16.50;;
1344;SDS011;15375;48.540;9.268;2023-02-13T03:35:03;19.03;;;12.67;;
1344;SDS011;15375;48.540;9.268;2023-02-13T03:37:51;28.30;;;16.83;;
1344;SDS011;15375;48.540;9.268;2023-02-13T03:41:04;27.43;;;14.33;;
1344;SDS011;15375;48.540;9.268;2023-02-13T03:43:39;16.77;;;12.57;;
1344;SDS011;15375;48.540;9.268;2023-02-13T03:46:13;21.17;;;13.17;;
1344;SDS011;15375;48.540;9.268;2023-02-13T03:48:43;25.10;;;15.20;;
1344;SDS011;15375;48.540;9.268;2023-02-13T03:54:48;30.73;;;16.47;;
1344;SDS011;15375;48.540;9.268;2023-02-13T03:57:33;23.30;;;15.03;;
1344;SDS011;15375;48.540;9.268;2023-02-13T04:00:22;28.30;;;15.17;;
1344;SDS011;15375;48.540;9.268;2023-02-13T04:03:13;20.50;;;13.97;;
1344;SDS011;15375;48.540;9.268;2023-02-13T04:05:55;20.70;;;15.00;;
1344;SDS011;15375;48.540;9.268;2023-02-13T04:08:27;21.40;;;13.83;;
1344;SDS011;15375;48.540;9.268;2023-02-13T04:10:56;21.13;;;14.03;;
1344;SDS011;15375;48.540;9.268;2023-02-13T04:13:32;22.13;;;13.57;;
1344;SDS011;15375;48.540;9.268;2023-02-13T04:16:09;16.98;;;12.70;;
1344;SDS011;15375;48.540;9.268;2023-02-13T04:18:56;21.37;;;13.23;;
1344;SDS011;15375;48.540;9.268;2023-02-13T04:21:22;21.20;;;13.63;;
1344;SDS011;15375;48.540;9.268;2023-02-13T04:23:48;23.87;;;15.13;;
1344;SDS011;15375;48.540;9.268;2023-02-13T04:26:15;20.23;;;14.87;;
1344;SDS011;15375;48.540;9.268;2023-02-13T04:28:42;21.30;;;14.93;;
1344;SDS011;15375;48.540;9.268;2023-02-13T04:31:08;20.27;;;14.87;;
1344;SDS011;15375;48.540;9.268;2023-02-13T04:33:34;25.43;;;15.93;;
1344;SDS011;15375;48.540;9.268;2023-02-13T04:35:59;27.47;;;17.10;;
1344;SDS011;15375;48.540;9.268;2023-02-13T04:38:24;23.40;;;15.23;;
1344;SDS011;15375;48.540;9.268;2023-02-13T04:40:50;22.13;;;15.67;;
1344;SDS011;15375;48.540;9.268;2023-02-13T04:43:15;20.03;;;13.90;;
1344;SDS011;15375;48.540;9.268;2023-02-13T04:45:41;29.13;;;15.17;;
1344;SDS011;15375;48.540;9.268;2023-02-13T04:48:06;22.70;;;13.87;;
1344;SDS011;15375;48.540;9.268;2023-02-13T04:50:31;30.70;;;15.87;;
1344;SDS011;15375;48.540;9.268;2023-02-13T04:52:57;21.70;;;14.60;;
1344;SDS011;15375;48.540;9.268;2023-02-13T04:55:23;22.80;;;16.17;;
1344;SDS011;15375;48.540;9.268;2023-02-13T04:57:53;17.40;;;14.13;;
1344;SDS011;15375;48.540;9.268;2023-02-13T05:00:20;24.17;;;15.80;;
1344;SDS011;15375;48.540;9.268;2023-02-13T05:02:46;24.50;;;16.67;;
1344;SDS011;15375;48.540;9.268;2023-02-13T05:05:11;17.30;;;13.60;;
1344;SDS011;15375;48.540;9.268;2023-02-13T05:07:37;17.53;;;13.13;;
1344;SDS011;15375;48.540;9.268;2023-02-13T05:10:02;21.73;;;14.97;;
1344;SDS011;15375;48.540;9.268;2023-02-13T05:12:28;22.27;;;14.30;;
1344;SDS011;15375;48.540;9.268;2023-02-13T05:14:53;23.40;;;16.10;;
1344;SDS011;15375;48.540;9.268;2023-02-13T05:17:18;23.93;;;15.33;;
1344;SDS011;15375;48.540;9.268;2023-02-13T05:19:44;21.60;;;14.83;;
1344;SDS011;15375;48.540;9.268;2023-02-13T05:22:09;19.07;;;14.27;;
1344;SDS011;15375;48.540;9.268;2023-02-13T05:24:53;25.57;;;16.33;;
1344;SDS011;15375;48.540;9.268;2023-02-13T05:27:18;17.83;;;13.10;;
1344;SDS011;15375;48.540;9.268;2023-02-13T05:29:44;19.90;;;14.50;;
1344;SDS011;15375;48.540;9.268;2023-02-13T05:32:09;20.50;;;16.30;;
1344;SDS011;15375;48.540;9.268;2023-02-13T05:34:34;23.50;;;15.63;;
1344;SDS011;15375;48.540;9.268;2023-02-13T05:37:00;18.10;;;14.00;;
1344;SDS011;15375;48.540;9.268;2023-02-13T05:39:25;17.57;;;13.00;;
1344;SDS011;15375;48.540;9.268;2023-02-13T05:41:50;23.43;;;14.37;;
1344;SDS011;15375;48.540;9.268;2023-02-13T05:44:16;23.33;;;14.27;;
1344;SDS011;15375;48.540;9.268;2023-02-13T05:46:42;21.27;;;13.60;;
1344;SDS011;15375;48.540;9.268;2023-02-13T05:49:09;22.47;;;14.37;;
1344;SDS011;15375;48.540;9.268;2023-02-13T05:51:35;21.97;;;13.93;;
1344;SDS011;15375;48.540;9.268;2023-02-13T05:54:00;19.13;;;13.87;;
1344;SDS011;15375;48.540;9.268;2023-02-13T05:56:26;19.40;;;15.23;;
1344;SDS011;15375;48.540;9.268;2023-02-13T05:58:52;22.40;;;15.07;;
1344;SDS011;15375;48.540;9.268;2023-02-13T06:01:21;19.37;;;14.97;;
1344;SDS011;15375;48.540;9.268;2023-02-13T06:03:47;17.20;;;13.00;;
1344;SDS011;15375;48.540;9.268;2023-02-13T06:06:13;17.67;;;14.43;;
1344;SDS011;15375;48.540;9.268;2023-02-13T06:08:39;25.20;;;15.17;;
1344;SDS011;15375;48.540;9.268;2023-02-13T06:11:04;23.33;;;15.30;;
1344;SDS011;15375;48.540;9.268;2023-02-13T06:13:30;22.33;;;15.90;;
1344;SDS011;15375;48.540;9.268;2023-02-13T06:15:55;19.73;;;14.93;;
1344;SDS011;15375;48.540;9.268;2023-02-13T06:18:21;24.40;;;17.83;;
1344;SDS011;15375;48.540;9.268;2023-02-13T06:20:46;26.17;;;18.20;;
1344;SDS011;15375;48.540;9.268;2023-02-13T06:23:11;23.37;;;16.63;;
1344;SDS011;15375;48.540;9.268;2023-02-13T06:25:37;19.97;;;13.93;;
1344;SDS011;15375;48.540;9.268;2023-02-13T06:28:03;20.73;;;14.03;;
1344;SDS011;15375;48.540;9.268;2023-02-13T06:30:29;20.77;;;15.17;;
1344;SDS011;15375;48.540;9.268;2023-02-13T06:32:55;19.23;;;13.50;;
1344;SDS011;15375;48.540;9.268;2023-02-13T06:35:20;21.37;;;16.00;;
1344;SDS011;15375;48.540;9.268;2023-02-13T06:37:45;20.80;;;15.20;;
1344;SDS011;15375;48.540;9.268;2023-02-13T06:40:12;23.47;;;14.47;;
1344;SDS011;15375;48.540;9.268;2023-02-13T06:42:38;18.67;;;14.60;;
1344;SDS011;15375;48.540;9.268;2023-02-13T06:45:04;20.43;;;13.17;;
1344;SDS011;15375;48.540;9.268;2023-02-13T06:47:30;21.83;;;14.32;;
1344;SDS011;15375;48.540;9.268;2023-02-13T06:49:55;24.87;;;15.40;;
1344;SDS011;15375;48.540;9.268;2023-02-13T06:52:21;25.27;;;15.77;;
1344;SDS011;15375;48.540;9.268;2023-02-13T06:54:46;17.50;;;14.20;;
1344;SDS011;15375;48.540;9.268;2023-02-13T06:57:11;24.03;;;14.93;;
1344;SDS011;15375;48.540;9.268;2023-02-13T06:59:37;20.43;;;15.47;;
1344;SDS011;15375;48.540;9.268;2023-02-13T07:02:02;23.00;;;14.30;;
1344;SDS011;15375;48.540;9.268;2023-02-13T07:04:28;21.93;;;16.60;;
1344;SDS011;15375;48.540;9.268;2023-02-13T07:06:54;21.50;;;13.60;;
1344;SDS011;15375;48.540;9.268;2023-02-13T07:09:21;19.47;;;13.30;;
1344;SDS011;15375;48.540;9.268;2023-02-13T07:11:47;18.13;;;12.73;;
1344;SDS011;15375;48.540;9.268;2023-02-13T07:14:12;18.63;;;13.93;;
1344;SDS011;15375;48.540;9.268;2023-02-13T07:16:37;18.47;;;12.97;;
1344;SDS011;15375;48.540;9.268;2023-02-13T07:19:03;18.40;;;11.90;;
1344;SDS011;15375;48.540;9.268;2023-02-13T07:21:28;22.17;;;12.40;;
1344;SDS011;15375;48.540;9.268;2023-02-13T07:23:53;24.37;;;15.10;;
1344;SDS011;15375;48.540;9.268;2023-02-13T07:26:19;19.73;;;13.57;;
1344;SDS011;15375;48.540;9.268;2023-02-13T07:28:44;20.77;;;15.30;;
1344;SDS011;15375;48.540;9.268;2023-02-13T07:31:09;23.53;;;15.33;;
1344;SDS011;15375;48.540;9.268;2023-02-13T07:33:35;17.70;;;13.57;;
1344;SDS011;15375;48.540;9.268;2023-02-13T07:36:01;19.10;;;14.07;;
1344;SDS011;15375;48.540;9.268;2023-02-13T07:38:31;20.77;;;15.30;;
1344;SDS011;15375;48.540;9.268;2023-02-13T07:40:57;19.80;;;12.53;;
1344;SDS011;15375;48.540;9.268;2023-02-13T07:43:23;18.90;;;14.17;;
1344;SDS011;15375;48.540;9.268;2023-02-13T07:45:49;20.07;;;13.80;;
1344;SDS011;15375;48.540;9.268;2023-02-13T07:48:14;20.20;;;13.23;;
1344;SDS011;15375;48.540;9.268;2023-02-13T07:50:39;17.47;;;12.73;;
1344;SDS011;15375;48.540;9.268;2023-02-13T07:53:05;19.53;;;13.73;;
1344;SDS011;15375;48.540;9.268;2023-02-13T07:55:30;21.23;;;13.00;;
1344;SDS011;15375;48.540;9.268;2023-02-13T07:57:58;21.13;;;14.80;;
1344;SDS011;15375;48.540;9.268;2023-02-13T08:00:24;17.93;;;14.10;;
1344;SDS011;15375;48.540;9.268;2023-02-13T08:02:49;42.10;;;34.33;;
1344;SDS011;15375;48.540;9.268;2023-02-13T08:05:14;17.43;;;13.53;;
1344;SDS011;15375;48.540;9.268;2023-02-13T08:07:40;20.37;;;14.13;;
1344;SDS011;15375;48.540;9.268;2023-02-13T08:10:06;18.43;;;14.03;;
1344;SDS011;15375;48.540;9.268;2023-02-13T08:12:52;18.77;;;15.37;;
1344;SDS011;15375;48.540;9.268;2023-02-13T08:15:18;22.20;;;15.80;;
1344;SDS011;15375;48.540;9.268;2023-02-13T08:17:43;17.37;;;13.73;;
1344;SDS011;15375;48.540;9.268;2023-02-13T08:20:09;21.53;;;15.80;;
1344;SDS011;15375;48.540;9.268;2023-02-13T08:22:35;18.83;;;13.20;;
1344;SDS011;15375;48.540;9.268;2023-02-13T08:25:02;18.97;;;14.40;;
1344;SDS011;15375;48.540;9.268;2023-02-13T08:27:28;18.13;;;14.63;;
1344;SDS011;15375;48.540;9.268;2023-02-13T08:29:54;17.50;;;14.63;;
1344;SDS011;15375;48.540;9.268;2023-02-13T08:32:20;17.77;;;14.20;;
1344;SDS011;15375;48.540;9.268;2023-02-13T08:34:46;21.23;;;18.83;;
1344;SDS011;15375;48.540;9.268;2023-02-13T08:37:11;14.33;;;11.60;;
1344;SDS011;15375;48.540;9.268;2023-02-13T08:39:36;18.27;;;13.80;;
1344;SDS011;15375;48.540;9.268;2023-02-13T08:42:02;17.30;;;12.20;;
1344;SDS011;15375;48.540;9.268;2023-02-13T08:44:27;14.50;;;12.57;;
1344;SDS011;15375;48.540;9.268;2023-02-13T08:46:53;13.07;;;11.70;;
1344;SDS011;15375;48.540;9.268;2023-02-13T08:49:18;17.47;;;12.70;;
1344;SDS011;15375;48.540;9.268;2023-02-13T08:51:43;14.20;;;11.40;;
1344;SDS011;15375;48.540;9.268;2023-02-13T08:54:09;13.30;;;11.03;;
1344;SDS011;15375;48.540;9.268;2023-02-13T08:56:34;34.00;;;29.20;;
1344;SDS011;15375;48.540;9.268;2023-02-13T08:58:59;16.80;;;12.83;;
1344;SDS011;15375;48.540;9.268;2023-02-13T09:01:25;16.83;;;13.37;;
1344;SDS011;15375;48.540;9.268;2023-02-13T09:03:50;14.27;;;11.40;;
1344;SDS011;15375;48.540;9.268;2023-02-13T09:06:16;17.77;;;12.27;;
1344;SDS011;15375;48.540;9.268;2023-02-13T09:08:41;15.60;;;12.30;;
1344;SDS011;15375;48.540;9.268;2023-02-13T09:11:08;13.50;;;11.00;;
1344;SDS011;15375;48.540;9.268;2023-02-13T09:13:34;14.90;;;12.00;;
1344;SDS011;15375;48.540;9.268;2023-02-13T09:16:01;13.80;;;11.97;;
1344;SDS011;15375;48.540;9.268;2023-02-13T09:18:29;12.90;;;10.70;;
1344;SDS011;15375;48.540;9.268;2023-02-13T09:21:28;15.20;;;11.87;;
1344;SDS011;15375;48.540;9.268;2023-02-13T09:23:47;13.33;;;11.53;;
1344;SDS011;15375;48.540;9.268;2023-02-13T09:26:15;13.83;;;11.80;;
1344;SDS011;15375;48.540;9.268;2023-02-13T09:28:41;13.47;;;12.07;;
1344;SDS011;15375;48.540;9.268;2023-02-13T09:31:08;18.23;;;12.17;;
1344;SDS011;15375;48.540;9.268;2023-02-13T09:33:35;13.20;;;11.37;;
1344;SDS011;15375;48.540;9.268;2023-02-13T09:36:07;13.53;;;11.33;;
1344;SDS011;15375;48.540;9.268;2023-02-13T09:38:34;14.43;;;10.53;;
1344;SDS011;15375;48.540;9.268;2023-02-13T09:41:01;14.90;;;11.20;;
1344;SDS011;15375;48.540;9.268;2023-02-13T09:43:34;13.40;;;11.20;;
1344;SDS011;15375;48.540;9.268;2023-02-13T09:46:08;13.10;;;11.80;;
1344;SDS011;15375;48.540;9.268;2023-02-13T09:48:50;16.47;;;12.70;;
1344;SDS011;15375;48.540;9.268;2023-02-13T09:51:19;12.53;;;10.70;;
1344;SDS011;15375;48.540;9.268;2023-02-13T09:53:50;13.60;;;10.90;;
1344;SDS011;15375;48.540;9.268;2023-02-13T09:56:50;12.13;;;10.40;;
1344;SDS011;15375;48.540;9.268;2023-02-13T10:07:43;12.47;;;10.60;;
1344;SDS011;15375;48.540;9.268;2023-02-13T10:10:21;14.23;;;11.40;;
1344;SDS011;15375;48.540;9.268;2023-02-13T10:18:16;13.43;;;11.10;;
1344;SDS011;15375;48.540;9.268;2023-02-13T10:20:46;11.70;;;10.50;;
1344;SDS011;15375;48.540;9.268;2023-02-13T10:23:26;12.53;;;10.63;;
1344;SDS011;15375;48.540;9.268;2023-02-13T10:26:20;12.87;;;10.30;;
1344;SDS011;15375;48.540;9.268;2023-02-13T10:29:02;14.70;;;11.20;;
1344;SDS011;15375;48.540;9.268;2023-02-13T10:31:50;14.30;;;11.53;;
1344;SDS011;15375;48.540;9.268;2023-02-13T10:34:20;13.07;;;10.27;;
1344;SDS011;15375;48.540;9.268;2023-02-13T10:36:48;12.13;;;10.00;;
1344;SDS011;15375;48.540;9.268;2023-02-13T10:55:28;14.10;;;10.10;;
1344;SDS011;15375;48.540;9.268;2023-02-13T11:01:12;12.77;;;10.70;;
1344;SDS011;15375;48.540;9.268;2023-02-13T11:03:40;12.13;;;9.90;;
1344;SDS011;15375;48.540;9.268;2023-02-13T11:06:06;11.17;;;10.03;;
1344;SDS011;15375;48.540;9.268;2023-02-13T11:08:39;13.60;;;9.97;;
1344;SDS011;15375;48.540;9.268;2023-02-13T11:22:04;7.80;;;6.93;;
1344;SDS011;15375;48.540;9.268;2023-02-13T11:24:38;7.10;;;6.40;;
1344;SDS011;15375;48.540;9.268;2023-02-13T11:27:07;10.90;;;6.20;;
1344;SDS011;15375;48.540;9.268;2023-02-13T11:29:50;7.00;;;5.93;;
1344;SDS011;15375;48.540;9.268;2023-02-13T11:32:24;8.27;;;7.13;;
1344;SDS011;15375;48.540;9.268;2023-02-13T11:34:52;7.23;;;6.53;;
1344;SDS011;15375;48.540;9.268;2023-02-13T11:39:49;7.97;;;6.50;;
1344;SDS011;15375;48.540;9.268;2023-02-13T11:42:34;9.43;;;7.13;;
1344;SDS011;15375;48.540;9.268;2023-02-13T11:45:19;8.77;;;7.47;;
1344;SDS011;15375;48.540;9.268;2023-02-13T11:47:47;10.70;;;8.20;;
1344;SDS011;15375;48.540;9.268;2023-02-13T11:52:57;10.57;;;6.97;;
1344;SDS011;15375;48.540;9.268;2023-02-13T11:58:00;8.40;;;6.63;;
1344;SDS011;15375;48.540;9.268;2023-02-13T12:00:33;7.53;;;6.67;;
1344;SDS011;15375;48.540;9.268;2023-02-13T12:05:54;9.93;;;8.20;;
1344;SDS011;15375;48.540;9.268;2023-02-13T12:08:28;7.43;;;6.70;;
1344;SDS011;15375;48.540;9.268;2023-02-13T12:10:55;7.60;;;6.80;;
1344;SDS011;15375;48.540;9.268;2023-02-13T12:13:25;8.97;;;6.87;;
1344;SDS011;15375;48.540;9.268;2023-02-13T12:15:59;9.20;;;7.60;;
1344;SDS011;15375;48.540;9.268;2023-02-13T12:18:30;9.97;;;7.30;;
1344;SDS011;15375;48.540;9.268;2023-02-13T12:42:49;11.90;;;8.43;;
1344;SDS011;15375;48.540;9.268;2023-02-13T12:45:24;10.47;;;7.90;;
1344;SDS011;15375;48.540;9.268;2023-02-13T12:48:26;10.47;;;7.90;;
1344;SDS011;15375;48.540;9.268;2023-02-13T12:51:06;10.50;;;7.97;;
1344;SDS011;15375;48.540;9.268;2023-02-13T12:54:23;10.77;;;7.93;;
1344;SDS011;15375;48.540;9.268;2023-02-13T12:56:33;9.93;;;8.43;;
1344;SDS011;15375;48.540;9.268;2023-02-13T12:59:11;9.10;;;8.00;;
1344;SDS011;15375;48.540;9.268;2023-02-13T13:07:57;10.30;;;7.20;;
1344;SDS011;15375;48.540;9.268;2023-02-13T13:10:42;9.23;;;6.73;;
1344;SDS011;15375;48.540;9.268;2023-02-13T13:26:31;9.27;;;7.10;;
1344;SDS011;15375;48.540;9.268;2023-02-13T13:29:15;15.43;;;8.00;;
1344;SDS011;15375;48.540;9.268;2023-02-13T13:31:48;9.57;;;6.27;;
1344;SDS011;15375;48.540;9.268;2023-02-13T13:34:19;8.27;;;7.27;;
1344;SDS011;15375;48.540;9.268;2023-02-13T13:42:22;9.30;;;7.17;;
1344;SDS011;15375;48.540;9.268;2023-02-13T13:45:00;7.83;;;6.90;;
1344;SDS011;15375;48.540;9.268;2023-02-13T13:50:40;9.23;;;8.00;;
1344;SDS011;15375;48.540;9.268;2023-02-13T13:53:12;7.73;;;6.73;;
1344;SDS011;15375;48.540;9.268;2023-02-13T13:56:00;8.43;;;6.87;;
1344;SDS011;15375;48.540;9.268;2023-02-13T13:58:39;9.33;;;7.30;;
1344;SDS011;15375;48.540;9.268;2023-02-13T14:03:41;9.23;;;7.43;;
1344;SDS011;15375;48.540;9.268;2023-02-13T14:06:09;11.00;;;7.63;;
1344;SDS011;15375;48.540;9.268;2023-02-13T14:11:38;9.70;;;6.93;;
1344;SDS011;15375;48.540;9.268;2023-02-13T14:14:42;9.70;;;7.83;;
1344;SDS011;15375;48.540;9.268;2023-02-13T14:16:57;7.57;;;6.53;;
1344;SDS011;15375;48.540;9.268;2023-02-13T14:24:53;10.13;;;7.87;;
1344;SDS011;15375;48.540;9.268;2023-02-13T14:27:24;8.37;;;6.90;;
1344;SDS011;15375;48.540;9.268;2023-02-13T14:29:54;8.50;;;6.77;;
1344;SDS011;15375;48.540;9.268;2023-02-13T14:34:59;7.73;;;6.90;;
1344;SDS011;15375;48.540;9.268;2023-02-13T14:37:35;9.03;;;7.07;;
1344;SDS011;15375;48.540;9.268;2023-02-13T14:42:39;9.97;;;8.07;;
1344;SDS011;15375;48.540;9.268;2023-02-13T14:45:12;9.70;;;7.67;;
1344;SDS011;15375;48.540;9.268;2023-02-13T14:47:47;9.80;;;8.20;;
1344;SDS011;15375;48.540;9.268;2023-02-13T14:50:27;10.37;;;8.30;;
1344;SDS011;15375;48.540;9.268;2023-02-13T14:52:57;12.40;;;8.70;;
1344;SDS011;15375;48.540;9.268;2023-02-13T14:58:11;11.30;;;8.37;;
1344;SDS011;15375;48.540;9.268;2023-02-13T15:00:42;8.50;;;6.90;;
1344;SDS011;15375;48.540;9.268;2023-02-13T15:06:23;9.53;;;7.53;;
1344;SDS011;15375;48.540;9.268;2023-02-13T15:08:53;9.70;;;8.23;;
1344;SDS011;15375;48.540;9.268;2023-02-13T15:11:34;9.27;;;8.23;;
1344;SDS011;15375;48.540;9.268;2023-02-13T15:14:23;12.07;;;8.20;;
1344;SDS011;15375;48.540;9.268;2023-02-13T15:16:58;12.43;;;8.63;;
1344;SDS011;15375;48.540;9.268;2023-02-13T15:19:29;12.00;;;7.97;;
1344;SDS011;15375;48.540;9.268;2023-02-13T15:21:56;13.80;;;8.93;;
1344;SDS011;15375;48.540;9.268;2023-02-13T15:24:24;14.80;;;9.67;;
1344;SDS011;15375;48.540;9.268;2023-02-13T15:26:57;13.40;;;9.17;;
1344;SDS011;15375;48.540;9.268;2023-02-13T15:29:28;9.90;;;8.10;;
1344;SDS011;15375;48.540;9.268;2023-02-13T15:31:55;7.90;;;5.90;;
1344;SDS011;15375;48.540;9.268;2023-02-13T15:36:54;13.70;;;8.63;;
1344;SDS011;15375;48.540;9.268;2023-02-13T15:39:24;13.13;;;9.70;;
1344;SDS011;15375;48.540;9.268;2023-02-13T15:41:53;11.67;;;8.10;;
1344;SDS011;15375;48.540;9.268;2023-02-13T15:44:25;14.30;;;9.53;;
1344;SDS011;15375;48.540;9.268;2023-02-13T15:46:53;14.57;;;10.07;;
1344;SDS011;15375;48.540;9.268;2023-02-13T15:49:24;16.03;;;8.93;;
1344;SDS011;15375;48.540;9.268;2023-02-13T15:52:00;14.60;;;10.17;;
1344;SDS011;15375;48.540;9.268;2023-02-13T15:54:31;13.60;;;9.90;;
1344;SDS011;15375;48.540;9.268;2023-02-13T15:56:59;13.30;;;9.00;;
1344;SDS011;15375;48.540;9.268;2023-02-13T15:59:30;13.37;;;9.37;;
1344;SDS011;15375;48.540;9.268;2023-02-13T16:02:00;13.77;;;9.50;;
1344;SDS011;15375;48.540;9.268;2023-02-13T16:04:27;12.90;;;8.80;;
1344;SDS011;15375;48.540;9.268;2023-02-13T16:06:54;14.43;;;9.70;;
1344;SDS011;15375;48.540;9.268;2023-02-13T16:09:25;12.90;;;9.47;;
1344;SDS011;15375;48.540;9.268;2023-02-13T16:14:53;14.30;;;10.03;;
1344;SDS011;15375;48.540;9.268;2023-02-13T16:17:23;11.60;;;9.37;;
1344;SDS011;15375;48.540;9.268;2023-02-13T16:22:51;14.27;;;10.53;;
1344;SDS011;15375;48.540;9.268;2023-02-13T16:25:22;17.00;;;11.50;;
1344;SDS011;15375;48.540;9.268;2023-02-13T16:28:16;14.80;;;11.03;;
1344;SDS011;15375;48.540;9.268;2023-02-13T16:30:44;14.23;;;10.63;;
1344;SDS011;15375;48.540;9.268;2023-02-13T16:35:47;15.07;;;8.90;;
1344;SDS011;15375;48.540;9.268;2023-02-13T16:38:24;15.27;;;10.00;;
1344;SDS011;15375;48.540;9.268;2023-02-13T16:40:51;11.07;;;7.20;;
1344;SDS011;15375;48.540;9.268;2023-02-13T16:46:08;18.60;;;10.07;;
1344;SDS011;15375;48.540;9.268;2023-02-13T16:53:58;14.87;;;9.90;;
1344;SDS011;15375;48.540;9.268;2023-02-13T16:56:25;18.87;;;11.60;;
1344;SDS011;15375;48.540;9.268;2023-02-13T16:59:02;14.80;;;10.73;;
1344;SDS011;15375;48.540;9.268;2023-02-13T17:01:29;15.87;;;10.40;;
1344;SDS011;15375;48.540;9.268;2023-02-13T17:03:55;14.40;;;10.00;;
1344;SDS011;15375;48.540;9.268;2023-02-13T17:06:22;15.03;;;10.20;;
1344;SDS011;15375;48.540;9.268;2023-02-13T17:08:48;16.47;;;11.17;;
1344;SDS011;15375;48.540;9.268;2023-02-13T17:11:16;12.60;;;9.30;;
1344;SDS011;15375;48.540;9.268;2023-02-13T17:13:42;13.60;;;10.67;;
1344;SDS011;15375;48.540;9.268;2023-02-13T17:16:08;16.77;;;12.47;;
1344;SDS011;15375;48.540;9.268;2023-02-13T17:18:34;17.03;;;11.27;;
1344;SDS011;15375;48.540;9.268;2023-02-13T17:20:59;13.70;;;9.10;;
1344;SDS011;15375;48.540;9.268;2023-02-13T17:23:24;17.60;;;10.37;;
1344;SDS011;15375;48.540;9.268;2023-02-13T17:25:50;15.43;;;11.17;;
1344;SDS011;15375;48.540;9.268;2023-02-13T17:28:18;14.73;;;10.43;;
1344;SDS011;15375;48.540;9.268;2023-02-13T17:30:49;21.27;;;11.43;;
1344;SDS011;15375;48.540;9.268;2023-02-13T17:33:23;17.43;;;11.17;;
1344;SDS011;15375;48.540;9.268;2023-02-13T17:35:50;17.07;;;11.47;;
1344;SDS011;15375;48.540;9.268;2023-02-13T17:38:16;17.17;;;11.20;;
1344;SDS011;15375;48.540;9.268;2023-02-13T17:40:42;20.47;;;12.47;;
1344;SDS011;15375;48.540;9.268;2023-02-13T17:43:09;17.63;;;13.00;;
1344;SDS011;15375;48.540;9.268;2023-02-13T17:45:35;16.50;;;9.80;;
1344;SDS011;15375;48.540;9.268;2023-02-13T17:48:00;16.73;;;11.70;;
1344;SDS011;15375;48.540;9.268;2023-02-13T17:50:27;18.03;;;11.77;;
1344;SDS011;15375;48.540;9.268;2023-02-13T17:52:54;17.03;;;12.57;;
1344;SDS011;15375;48.540;9.268;2023-02-13T17:55:22;18.87;;;13.07;;
1344;SDS011;15375;48.540;9.268;2023-02-13T17:57:50;18.70;;;11.90;;
1344;SDS011;15375;48.540;9.268;2023-02-13T18:00:17;17.70;;;12.47;;